createdAt,value
2018-11-25T06:48:34.386Z,49.00
2018-11-25T06:51:47.385Z,49.50
2018-11-25T06:55:01.220Z,49.10
2018-11-25T06:58:17.716Z,48.80
2018-11-25T07:01:43.309Z,48.80
2018-11-25T07:04:49.425Z,48.60
2018-11-25T07:07:49.352Z,48.50
2018-11-25T07:10:57.352Z,49.00
2018-11-25T07:14:02.279Z,49.20
2018-11-25T07:17:11.769Z,49.20
2018-11-25T07:20:08.258Z,49.20
2018-11-25T07:23:13.202Z,49.10
2018-11-25T07:26:14.035Z,49.10
2018-11-25T07:29:18.774Z,48.90
2018-11-25T07:32:23.620Z,49.10
2018-11-25T07:35:27.066Z,49.30
2018-11-25T07:38:32.753Z,49.10
2018-11-25T07:41:38.007Z,48.90
2018-11-25T07:45:02.221Z,49.00
2018-11-25T07:47:49.718Z,49.10
2018-11-25T07:50:55.412Z,49.00
2018-11-25T07:53:57.462Z,48.80
2018-11-25T07:57:03.299Z,49.20
2018-11-25T08:00:03.904Z,49.20
2018-11-25T08:03:04.882Z,49.20
2018-11-25T08:06:06.231Z,48.70
2018-11-25T08:09:11.776Z,48.80
2018-11-25T08:12:17.928Z,48.70
2018-11-25T08:15:20.002Z,49.10
2018-11-25T08:18:30.266Z,48.70
2018-11-25T08:21:35.941Z,48.60
2018-11-25T08:24:40.748Z,48.50
2018-11-25T08:27:45.590Z,47.90
2018-11-25T08:30:46.169Z,48.00
2018-11-25T08:33:51.959Z,48.20
2018-11-25T08:36:57.789Z,48.40
2018-11-25T08:40:08.499Z,47.90
2018-11-25T08:43:13.330Z,48.00
2018-11-25T08:46:18.528Z,47.60
2018-11-25T08:49:22.132Z,47.90
2018-11-25T08:52:26.907Z,47.50
2018-11-25T08:55:31.101Z,47.70
2018-11-25T08:58:36.595Z,48.00
2018-11-25T09:01:41.012Z,47.90
2018-11-25T09:04:46.549Z,47.70
2018-11-25T09:07:52.202Z,48.00
2018-11-25T09:10:57.285Z,48.00
2018-11-25T09:13:57.888Z,48.00
2018-11-25T09:16:59.340Z,48.00
2018-11-25T09:20:04.577Z,48.10
2018-11-25T09:23:10.840Z,47.20
2018-11-25T09:26:16.657Z,47.90
2018-11-25T09:29:22.449Z,48.30
2018-11-25T09:32:27.298Z,48.30
2018-11-25T09:35:27.818Z,47.50
2018-11-25T09:38:32.688Z,48.40
2018-11-25T09:41:37.155Z,48.40
2018-11-25T09:44:42.138Z,48.50
2018-11-25T09:47:46.675Z,48.60
2018-11-25T09:50:51.386Z,48.40
2018-11-25T09:53:56.217Z,47.50
2018-11-25T09:56:57.575Z,48.30
2018-11-25T09:59:57.544Z,48.70
2018-11-25T10:02:58.275Z,48.60
2018-11-25T10:05:59.115Z,48.70
2018-11-25T10:09:04.418Z,47.40
2018-11-25T10:12:09.740Z,48.70
2018-11-25T10:15:15.168Z,48.50
2018-11-25T10:18:19.173Z,48.50
2018-11-25T10:21:24.263Z,48.80
2018-11-25T10:24:28.765Z,48.50
2018-11-25T10:27:29.104Z,48.70
2018-11-25T10:30:34.373Z,48.40
2018-11-25T10:33:39.282Z,48.10
2018-11-25T10:36:44.238Z,48.20
2018-11-25T10:39:46.603Z,48.10
2018-11-25T10:42:51.712Z,48.40
2018-11-25T10:45:55.990Z,48.60
2018-11-25T10:49:00.737Z,48.10
2018-11-25T10:52:04.807Z,48.30
2018-11-25T10:55:08.685Z,48.10
2018-11-25T10:58:13.636Z,48.40
2018-11-25T11:01:34.228Z,48.00
2018-11-25T11:04:58.019Z,48.40
2018-11-25T11:08:03.357Z,48.60
2018-11-25T11:11:03.906Z,48.50
2018-11-25T11:14:08.888Z,48.70
2018-11-25T11:17:09.446Z,48.80
2018-11-25T11:20:14.804Z,48.90
2018-11-25T11:23:20.574Z,49.00
2018-11-25T11:26:28.348Z,48.90
2018-11-25T11:29:33.523Z,49.00
2018-11-25T11:32:39.862Z,49.00
2018-11-25T11:35:44.882Z,49.00
2018-11-25T11:38:50.956Z,49.00
2018-11-25T11:41:52.610Z,49.20
2018-11-25T11:44:52.502Z,49.00
2018-11-25T11:47:55.566Z,49.20
2018-11-25T11:51:00.352Z,49.10
2018-11-25T11:54:04.488Z,49.50
2018-11-25T11:57:08.366Z,49.60
2018-11-25T12:00:31.478Z,49.40
2018-11-25T12:03:36.011Z,49.60
2018-11-25T12:06:43.109Z,49.70
2018-11-25T12:09:48.605Z,49.80
2018-11-25T12:12:53.304Z,49.40
2018-11-25T12:15:56.824Z,49.70
2018-11-25T12:19:01.761Z,49.90
2018-11-25T12:22:06.958Z,49.70
2018-11-25T12:25:12.466Z,50.10
2018-11-25T12:28:17.270Z,49.90
2018-11-25T12:31:23.481Z,50.00
2018-11-25T12:34:28.547Z,50.00
2018-11-25T12:37:35.899Z,50.20
2018-11-25T12:40:36.472Z,50.20
2018-11-25T12:43:41.600Z,50.00
2018-11-25T12:46:46.755Z,50.20
2018-11-25T12:49:51.801Z,49.70
2018-11-25T12:52:56.099Z,50.30
2018-11-25T12:56:01.802Z,50.40
2018-11-25T12:59:06.177Z,50.10
2018-11-25T13:02:11.093Z,50.40
2018-11-25T13:05:15.787Z,50.20
2018-11-25T13:08:20.746Z,50.10
2018-11-25T13:11:24.941Z,49.90
2018-11-25T13:14:30.049Z,49.80
2018-11-25T13:17:30.782Z,50.30
2018-11-25T13:20:35.963Z,50.30
2018-11-25T13:23:43.108Z,50.20
2018-11-25T13:26:42.445Z,50.30
2018-11-25T13:29:47.645Z,50.30
2018-11-25T13:32:49.170Z,50.20
2018-11-25T13:35:54.287Z,50.20
2018-11-25T13:38:58.383Z,49.70
2018-11-25T13:42:02.704Z,50.10
2018-11-25T13:45:05.665Z,50.20
2018-11-25T13:48:10.709Z,50.20
2018-11-25T13:51:15.645Z,49.80
2018-11-25T13:54:21.158Z,50.00
2018-11-25T13:57:26.058Z,50.30
2018-11-25T14:00:35.006Z,50.70
2018-11-25T14:03:40.102Z,50.70
2018-11-25T14:06:45.045Z,50.60
2018-11-25T14:09:49.958Z,50.60
2018-11-25T14:12:54.245Z,50.60
2018-11-25T14:15:58.457Z,50.60
2018-11-25T14:19:03.594Z,50.70
2018-11-25T14:22:08.626Z,50.70
2018-11-25T14:25:13.656Z,50.60
2018-11-25T14:28:18.647Z,50.80
2018-11-25T14:31:23.009Z,50.80
2018-11-25T14:34:28.704Z,50.60
2018-11-25T14:37:33.222Z,50.40
2018-11-25T14:40:40.782Z,49.80
2018-11-25T14:43:40.304Z,50.20
2018-11-25T14:46:45.040Z,50.00
2018-11-25T14:49:49.617Z,50.10
2018-11-25T14:52:52.647Z,50.70
2018-11-25T14:56:00.584Z,50.90
2018-11-25T14:59:05.379Z,50.90
2018-11-25T15:02:12.337Z,51.00
2018-11-25T15:05:17.180Z,50.70
2018-11-25T15:08:22.227Z,50.50
2018-11-25T15:11:22.469Z,51.20
2018-11-25T15:14:30.456Z,51.20
2018-11-25T15:17:35.294Z,50.70
2018-11-25T15:20:35.492Z,50.70
2018-11-25T15:23:39.134Z,51.30
2018-11-25T15:26:43.859Z,51.30
2018-11-25T15:29:46.633Z,51.30
2018-11-25T15:32:50.818Z,51.30
2018-11-25T15:35:50.642Z,51.30
2018-11-25T15:38:50.492Z,50.90
2018-11-25T15:41:51.247Z,50.80
2018-11-25T15:44:55.684Z,51.20
2018-11-25T15:48:01.322Z,51.30
2018-11-25T15:51:06.420Z,51.40
2018-11-25T15:54:11.994Z,51.30
2018-11-25T15:57:13.095Z,51.20
2018-11-25T16:00:21.717Z,50.90
2018-11-25T16:03:26.235Z,51.20
2018-11-25T16:06:35.121Z,51.40
2018-11-25T16:09:39.553Z,51.40
2018-11-25T16:12:46.961Z,51.70
2018-11-25T16:15:49.378Z,51.70
2018-11-25T16:18:54.399Z,51.70
2018-11-25T16:21:58.508Z,51.90
2018-11-25T16:25:03.014Z,51.90
2018-11-25T16:28:08.104Z,51.90
2018-11-25T16:31:12.505Z,52.10
2018-11-25T16:34:16.946Z,51.70
2018-11-25T16:37:21.783Z,51.90
2018-11-25T16:40:24.896Z,51.80
2018-11-25T16:43:29.367Z,52.00
2018-11-25T16:46:35.420Z,51.90
2018-11-25T16:49:40.221Z,52.00
2018-11-25T16:52:45.305Z,51.80
2018-11-25T16:55:49.765Z,51.60
2018-11-25T16:58:53.850Z,51.40
2018-11-25T17:01:57.426Z,51.40
2018-11-25T17:05:03.315Z,51.40
2018-11-25T17:08:07.222Z,51.10
2018-11-25T17:11:11.949Z,50.90
2018-11-25T17:14:08.336Z,51.10
2018-11-25T17:20:15.597Z,51.10
2018-11-25T17:23:16.911Z,50.70
2018-11-25T17:26:22.367Z,50.90
2018-11-25T17:29:24.864Z,51.10
2018-11-25T17:32:29.831Z,50.90
2018-11-25T17:35:34.656Z,50.90
2018-11-25T17:38:44.894Z,51.10
2018-11-25T17:41:46.985Z,51.30
2018-11-25T17:44:51.802Z,51.30
2018-11-25T17:47:56.839Z,51.50
2018-11-25T17:51:02.559Z,51.50
2018-11-25T17:54:08.219Z,51.30
2018-11-25T17:57:16.682Z,51.60
2018-11-25T18:00:21.790Z,51.40
2018-11-25T18:03:27.366Z,51.50
2018-11-25T18:06:32.276Z,51.30
2018-11-25T18:09:32.839Z,51.30
2018-11-25T18:12:37.965Z,51.80
2018-11-25T18:15:42.513Z,51.80
2018-11-25T18:18:47.607Z,51.70
2018-11-25T18:21:51.638Z,51.90
2018-11-25T18:24:55.845Z,52.10
2018-11-25T18:28:00.528Z,52.30
2018-11-25T18:31:00.609Z,52.30
2018-11-25T18:34:04.984Z,52.20
2018-11-25T18:37:04.761Z,52.30
2018-11-25T18:40:08.461Z,52.40
2018-11-25T18:43:13.281Z,52.40
2018-11-25T18:46:17.556Z,52.30
2018-11-25T18:49:23.633Z,52.40
2018-11-25T18:52:27.618Z,52.40
2018-11-25T18:55:26.943Z,52.10
2018-11-25T18:58:26.922Z,52.20
2018-11-25T19:01:29.115Z,52.10
2018-11-25T19:04:34.054Z,52.00
2018-11-25T19:07:38.208Z,52.60
2018-11-25T19:10:42.718Z,52.30
2018-11-25T19:13:47.146Z,52.10
2018-11-25T19:16:52.464Z,51.90
2018-11-25T19:19:58.913Z,51.50
2018-11-25T19:23:03.829Z,51.10
2018-11-25T19:26:08.162Z,51.50
2018-11-25T19:29:12.298Z,50.70
2018-11-25T19:32:17.631Z,51.00
2018-11-25T19:35:18.544Z,51.00
2018-11-25T19:38:23.739Z,51.10
2018-11-25T19:41:28.454Z,51.20
2018-11-25T19:44:33.154Z,51.10
2018-11-25T19:47:38.167Z,51.50
2018-11-25T19:50:43.065Z,51.50
2018-11-25T19:53:47.183Z,51.80
2018-11-25T19:56:51.152Z,52.00
2018-11-25T19:59:55.324Z,52.20
2018-11-25T20:03:00.172Z,51.70
2018-11-25T20:06:01.428Z,51.50
2018-11-25T20:09:06.397Z,51.90
2018-11-25T20:12:06.658Z,52.30
2018-11-25T20:15:07.903Z,52.00
2018-11-25T20:18:12.675Z,51.30
2018-11-25T20:21:32.551Z,51.30
2018-11-25T20:24:37.332Z,51.90
2018-11-25T20:27:55.668Z,51.70
2018-11-25T20:31:00.644Z,51.60
2018-11-25T20:34:02.015Z,51.90
2018-11-25T20:37:02.536Z,51.90
2018-11-25T20:40:05.405Z,51.20
2018-11-25T20:43:10.288Z,51.80
2018-11-25T20:46:30.691Z,51.50
2018-11-25T20:49:35.818Z,51.60
2018-11-25T20:52:56.773Z,51.10
2018-11-25T20:55:58.542Z,51.30
2018-11-25T20:58:59.777Z,51.90
2018-11-25T21:02:04.634Z,51.20
2018-11-25T21:05:07.516Z,51.70
2018-11-25T21:08:12.936Z,51.90
2018-11-25T21:11:17.198Z,51.50
2018-11-25T21:14:21.804Z,51.60
2018-11-25T21:17:22.547Z,51.90
2018-11-25T21:20:26.957Z,51.90
2018-11-25T21:23:31.093Z,51.60
2018-11-25T21:26:35.423Z,51.60
2018-11-25T21:29:39.117Z,51.70
2018-11-25T21:32:44.433Z,51.50
2018-11-25T21:35:49.301Z,52.00
2018-11-25T21:38:50.392Z,51.90
2018-11-25T21:41:55.540Z,51.80
2018-11-25T21:44:59.190Z,52.00
2018-11-25T21:48:01.715Z,51.50
2018-11-25T21:51:02.541Z,51.60
2018-11-25T21:54:07.901Z,52.20
2018-11-25T21:57:12.297Z,51.70
2018-11-25T22:00:17.665Z,51.80
2018-11-25T22:03:18.122Z,52.00
2018-11-25T22:06:18.407Z,51.90
2018-11-25T22:09:22.897Z,52.50
2018-11-25T22:12:27.086Z,51.60
2018-11-25T22:15:28.724Z,51.60
2018-11-25T22:18:32.828Z,51.90
2018-11-25T22:21:37.623Z,52.10
2018-11-25T22:24:43.096Z,52.00
2018-11-25T22:27:51.138Z,51.90
2018-11-25T22:30:52.448Z,52.00
2018-11-25T22:33:53.095Z,51.90
2018-11-25T22:36:58.091Z,51.80
2018-11-25T22:39:58.650Z,52.10
2018-11-25T22:43:00.504Z,51.80
2018-11-25T22:46:05.016Z,51.80
2018-11-25T22:49:09.848Z,51.80
2018-11-25T22:52:15.184Z,51.90
2018-11-25T22:55:20.156Z,52.00
2018-11-25T22:58:24.702Z,52.10
2018-11-25T23:01:29.356Z,52.20
2018-11-25T23:04:35.100Z,52.10
2018-11-25T23:07:40.007Z,52.20
2018-11-25T23:10:44.259Z,52.30
2018-11-25T23:13:48.800Z,52.30
2018-11-25T23:16:53.262Z,52.00
2018-11-25T23:19:57.654Z,52.20
2018-11-25T23:23:03.061Z,52.40
2018-11-25T23:26:08.249Z,52.30
2018-11-25T23:29:13.538Z,52.00
2018-11-25T23:32:16.109Z,52.00
2018-11-25T23:35:24.217Z,52.00
2018-11-25T23:38:29.456Z,52.00
2018-11-25T23:41:34.685Z,52.00
2018-11-25T23:44:34.937Z,52.30
2018-11-25T23:47:39.698Z,52.30
2018-11-25T23:50:44.767Z,52.40
2018-11-25T23:53:49.366Z,52.30
2018-11-25T23:56:57.064Z,52.40
